createdAt,value
2022-12-23T00:01:13.233Z,1.77
2022-12-23T00:03:39.872Z,1.88
2022-12-23T00:06:14.985Z,1.75
2022-12-23T00:08:42.301Z,2.22
2022-12-23T00:11:15.179Z,2.05
2022-12-23T00:14:00.739Z,2.28
2022-12-23T00:16:27.406Z,2.10
2022-12-23T00:18:54.388Z,2.40
2022-12-23T00:21:21.490Z,2.08
2022-12-23T00:23:49.973Z,2.10
2022-12-23T00:26:24.920Z,2.00
2022-12-23T00:28:51.980Z,2.35
2022-12-23T00:31:21.191Z,2.13
2022-12-23T00:33:49.352Z,2.10
2022-12-23T00:36:23.846Z,2.10
2022-12-23T00:39:09.241Z,2.45
2022-12-23T00:41:54.477Z,2.60
2022-12-23T00:44:21.178Z,2.03
2022-12-23T00:46:47.816Z,2.10
2022-12-23T00:49:35.209Z,1.88
2022-12-23T00:52:01.775Z,2.25
2022-12-23T00:54:28.911Z,2.03
2022-12-23T00:56:55.461Z,2.55
2022-12-23T00:59:22.006Z,2.20
2022-12-23T01:02:07.100Z,2.17
2022-12-23T01:04:52.421Z,2.13
2022-12-23T01:07:19.221Z,2.60
2022-12-23T01:09:45.806Z,2.28
2022-12-23T01:12:13.421Z,2.25
2022-12-23T01:14:40.188Z,1.88
2022-12-23T01:17:08.118Z,2.42
2022-12-23T01:19:35.003Z,2.10
2022-12-23T01:22:01.526Z,2.03
2022-12-23T01:24:29.727Z,2.30
2022-12-23T01:26:56.425Z,2.30
2022-12-23T01:29:23.049Z,2.33
2022-12-23T01:31:49.659Z,2.50
2022-12-23T01:34:16.336Z,2.50
2022-12-23T01:36:43.882Z,2.05
2022-12-23T01:39:10.431Z,2.60
2022-12-23T01:41:55.230Z,2.13
2022-12-23T01:44:56.881Z,1.85
2022-12-23T01:47:29.373Z,2.33
2022-12-23T01:50:08.452Z,2.10
2022-12-23T01:52:39.982Z,2.50
2022-12-23T01:55:06.982Z,2.00
2022-12-23T01:57:34.442Z,2.25
2022-12-23T02:00:19.487Z,2.00
2022-12-23T02:03:05.093Z,2.15
2022-12-23T02:05:32.005Z,2.30
2022-12-23T02:08:16.852Z,2.05
2022-12-23T02:11:19.280Z,2.10
2022-12-23T02:14:36.867Z,2.20
2022-12-23T02:17:41.684Z,2.20
2022-12-23T02:20:20.119Z,2.10
2022-12-23T02:22:52.638Z,2.38
2022-12-23T02:25:26.812Z,2.00
2022-12-23T02:28:21.235Z,2.70
2022-12-23T02:30:52.462Z,2.10
2022-12-23T02:33:47.141Z,2.35
2022-12-23T02:36:32.174Z,2.22
2022-12-23T02:39:10.729Z,1.83
2022-12-23T02:41:51.427Z,1.92
2022-12-23T02:44:38.140Z,2.20
2022-12-23T02:47:17.838Z,2.33
2022-12-23T02:49:51.417Z,2.85
2022-12-23T02:52:21.450Z,2.20
2022-12-23T02:54:54.310Z,2.35
2022-12-23T02:57:24.623Z,2.17
2022-12-23T02:59:52.303Z,2.00
2022-12-23T03:02:19.817Z,2.00
2022-12-23T03:04:46.481Z,2.08
2022-12-23T03:07:31.861Z,2.28
2022-12-23T03:10:17.130Z,2.10
2022-12-23T03:13:01.600Z,2.25
2022-12-23T03:15:28.100Z,1.90
2022-12-23T03:18:07.782Z,1.90
2022-12-23T03:20:54.895Z,1.95
2022-12-23T03:23:29.548Z,2.20
2022-12-23T03:25:56.013Z,2.17
2022-12-23T03:28:44.006Z,2.00
2022-12-23T03:31:17.678Z,2.05
2022-12-23T03:33:48.259Z,2.05
2022-12-23T03:36:25.457Z,2.17
2022-12-23T03:38:53.806Z,2.05
2022-12-23T03:41:25.882Z,2.22
2022-12-23T03:44:10.916Z,2.05
2022-12-23T03:46:40.633Z,2.00
2022-12-23T03:49:10.120Z,2.10
2022-12-23T03:51:44.810Z,1.92
2022-12-23T03:54:16.570Z,1.80
2022-12-23T03:56:49.991Z,2.30
2022-12-23T03:59:22.040Z,2.15
2022-12-23T04:02:17.422Z,2.22
2022-12-23T04:04:46.930Z,2.30
2022-12-23T04:07:21.575Z,1.90
2022-12-23T04:09:48.477Z,2.13
2022-12-23T04:12:15.349Z,1.95
2022-12-23T04:14:48.673Z,2.17
2022-12-23T04:17:16.099Z,2.22
2022-12-23T04:19:45.418Z,1.88
2022-12-23T04:22:13.712Z,1.70
2022-12-23T04:24:40.339Z,2.00
2022-12-23T04:27:07.976Z,2.17
2022-12-23T04:29:34.516Z,1.90
2022-12-23T04:32:01.110Z,1.90
2022-12-23T04:34:27.666Z,2.00
2022-12-23T04:36:54.298Z,2.13
2022-12-23T04:39:20.872Z,1.90
2022-12-23T04:41:47.762Z,1.80
2022-12-23T04:44:14.328Z,1.83
2022-12-23T04:46:40.971Z,2.00
2022-12-23T04:49:07.779Z,1.90
2022-12-23T04:51:34.391Z,2.10
2022-12-23T04:54:00.924Z,1.92
2022-12-23T04:56:27.451Z,1.90
2022-12-23T04:58:54.051Z,2.20
2022-12-23T05:01:20.711Z,2.00
2022-12-23T05:03:47.264Z,2.00
2022-12-23T05:06:13.820Z,1.80
2022-12-23T05:08:40.349Z,1.90
2022-12-23T05:11:07.538Z,1.95
2022-12-23T05:13:34.143Z,2.10
2022-12-23T05:16:00.750Z,1.90
2022-12-23T05:18:27.386Z,2.15
2022-12-23T05:20:54.527Z,1.70
2022-12-23T05:23:21.075Z,2.10
2022-12-23T05:25:55.089Z,2.00
2022-12-23T05:28:22.308Z,1.73
2022-12-23T05:30:48.995Z,2.03
2022-12-23T05:33:15.884Z,1.70
2022-12-23T05:35:42.479Z,1.63
2022-12-23T05:38:09.038Z,1.80
2022-12-23T05:40:35.620Z,2.20
2022-12-23T05:43:02.396Z,2.08
2022-12-23T05:45:29.183Z,1.80
2022-12-23T05:47:55.846Z,1.80
2022-12-23T05:50:22.416Z,2.15
2022-12-23T05:52:48.994Z,1.80
2022-12-23T05:55:15.593Z,1.63
2022-12-23T05:57:42.157Z,1.75
2022-12-23T06:00:09.703Z,1.80
2022-12-23T06:02:36.451Z,2.03
2022-12-23T06:05:03.190Z,1.77
2022-12-23T06:07:29.715Z,1.92
2022-12-23T06:09:56.273Z,1.60
2022-12-23T06:12:22.802Z,1.70
2022-12-23T06:14:49.454Z,2.10
2022-12-23T06:17:16.031Z,1.88
2022-12-23T06:19:42.568Z,1.85
2022-12-23T06:22:09.234Z,1.90
2022-12-23T06:24:35.770Z,1.90
2022-12-23T06:27:02.311Z,1.95
2022-12-23T06:29:29.313Z,2.00
2022-12-23T06:31:55.910Z,1.98
2022-12-23T06:34:22.466Z,1.70
2022-12-23T06:36:49.023Z,2.05
2022-12-23T06:39:15.672Z,2.03
2022-12-23T06:41:42.209Z,1.77
2022-12-23T06:44:10.058Z,1.67
2022-12-23T06:46:36.597Z,1.88
2022-12-23T06:49:09.054Z,1.50
2022-12-23T06:51:39.298Z,1.80
2022-12-23T06:54:05.821Z,1.70
2022-12-23T06:56:33.454Z,1.70
2022-12-23T06:59:00.110Z,1.80
2022-12-23T07:01:26.801Z,1.60
2022-12-23T07:03:53.427Z,1.67
2022-12-23T07:06:19.964Z,1.70
2022-12-23T07:08:46.524Z,1.70
2022-12-23T07:11:13.058Z,1.55
2022-12-23T07:13:39.586Z,1.65
2022-12-23T07:16:07.964Z,1.45
2022-12-23T07:18:35.045Z,1.50
2022-12-23T07:21:02.363Z,1.30
2022-12-23T07:23:29.289Z,1.33
2022-12-23T07:25:55.862Z,1.40
2022-12-23T07:28:25.167Z,1.60
2022-12-23T07:30:51.714Z,1.20
2022-12-23T07:33:18.261Z,1.30
2022-12-23T07:35:44.812Z,1.40
2022-12-23T07:38:11.335Z,1.20
2022-12-23T07:40:37.887Z,1.25
2022-12-23T07:43:05.619Z,1.25
2022-12-23T07:45:32.187Z,1.38
2022-12-23T07:48:00.510Z,1.40
2022-12-23T07:50:27.665Z,1.38
2022-12-23T07:52:54.658Z,1.25
2022-12-23T07:55:21.551Z,1.15
2022-12-23T07:57:51.858Z,1.10
2022-12-23T08:00:19.439Z,1.33
2022-12-23T08:02:46.681Z,1.27
2022-12-23T08:05:13.687Z,1.15
2022-12-23T08:07:40.401Z,1.20
2022-12-23T08:10:07.588Z,1.13
2022-12-23T08:12:34.372Z,1.20
2022-12-23T08:15:00.909Z,1.20
2022-12-23T08:17:28.912Z,1.00
2022-12-23T08:19:55.667Z,1.27
2022-12-23T08:22:22.445Z,1.45
2022-12-23T08:24:49.024Z,1.60
2022-12-23T08:27:16.353Z,2.30
2022-12-23T08:29:42.930Z,5.88
2022-12-23T08:32:09.478Z,5.97
2022-12-23T08:34:36.376Z,6.50
2022-12-23T08:37:02.923Z,6.68
2022-12-23T08:39:29.474Z,7.38
2022-12-23T08:41:56.169Z,7.07
2022-12-23T08:44:22.845Z,6.60
2022-12-23T08:46:52.105Z,7.25
2022-12-23T08:49:18.684Z,7.18
2022-12-23T08:51:45.489Z,8.15
2022-12-23T08:54:12.283Z,7.85
2022-12-23T08:56:42.178Z,7.18
2022-12-23T08:59:18.582Z,6.63
2022-12-23T09:01:47.346Z,6.95
2022-12-23T09:04:14.063Z,6.88
2022-12-23T09:06:42.307Z,6.90
2022-12-23T09:09:11.674Z,6.40
2022-12-23T09:11:38.297Z,6.22
2022-12-23T09:14:05.223Z,6.25
2022-12-23T09:16:32.288Z,6.18
2022-12-23T09:18:58.989Z,6.47
2022-12-23T09:21:25.595Z,5.68
2022-12-23T09:23:52.692Z,5.40
2022-12-23T09:26:21.751Z,6.63
2022-12-23T09:28:48.333Z,5.45
2022-12-23T09:31:15.129Z,6.03
2022-12-23T09:33:41.943Z,5.53
2022-12-23T09:36:08.889Z,5.47
2022-12-23T09:38:36.122Z,5.32
2022-12-23T09:41:35.483Z,5.38
2022-12-23T09:44:12.836Z,4.97
2022-12-23T09:46:47.320Z,5.32
2022-12-23T09:49:16.664Z,4.72
2022-12-23T09:51:43.766Z,5.13
2022-12-23T09:54:17.356Z,4.40
2022-12-23T09:56:54.771Z,5.13
2022-12-23T09:59:43.093Z,4.22
2022-12-23T10:02:38.723Z,4.32
2022-12-23T10:05:32.068Z,4.63
2022-12-23T10:08:14.188Z,3.97
2022-12-23T10:10:47.318Z,4.70
2022-12-23T10:13:41.375Z,3.88
2022-12-23T10:18:39.336Z,4.35
2022-12-23T10:21:18.576Z,3.97
2022-12-23T10:23:50.494Z,3.78
2022-12-23T10:26:24.367Z,4.00
2022-12-23T10:29:08.005Z,4.10
2022-12-23T10:32:06.102Z,3.80
2022-12-23T10:34:52.766Z,3.67
2022-12-23T10:37:52.102Z,3.58
2022-12-23T10:40:56.174Z,3.50
2022-12-23T10:43:40.999Z,3.65
2022-12-23T10:46:17.598Z,2.88
2022-12-23T10:49:25.773Z,3.22
2022-12-23T10:51:58.250Z,3.30
2022-12-23T10:54:32.165Z,3.75
2022-12-23T10:56:58.843Z,3.10
2022-12-23T10:59:31.586Z,3.40
2022-12-23T11:02:13.602Z,3.88
2022-12-23T11:04:42.660Z,2.90
2022-12-23T11:07:42.969Z,3.03
2022-12-23T11:10:17.110Z,3.33
2022-12-23T11:12:49.943Z,3.25
2022-12-23T11:15:32.548Z,2.97
2022-12-23T11:18:07.606Z,3.15
2022-12-23T11:20:36.374Z,2.42
2022-12-23T11:23:04.732Z,2.72
2022-12-23T11:25:42.066Z,2.42
2022-12-23T11:28:19.675Z,2.72
2022-12-23T11:30:55.964Z,2.47
2022-12-23T11:33:30.337Z,2.63
2022-12-23T11:36:12.056Z,2.38
2022-12-23T11:38:51.386Z,2.53
2022-12-23T11:41:22.759Z,2.65
2022-12-23T11:43:58.310Z,2.67
2022-12-23T11:46:30.005Z,2.15
2022-12-23T11:49:21.235Z,2.50
2022-12-23T11:52:07.524Z,2.33
2022-12-23T11:54:34.570Z,2.83
2022-12-23T11:57:03.400Z,2.10
2022-12-23T11:59:33.588Z,2.40
2022-12-23T12:02:02.354Z,2.60
2022-12-23T12:04:33.017Z,2.10
2022-12-23T12:07:00.708Z,2.17
2022-12-23T12:09:29.727Z,2.05
2022-12-23T12:12:05.691Z,2.25
2022-12-23T12:14:41.918Z,2.22
2022-12-23T12:17:31.195Z,1.83
2022-12-23T12:20:15.219Z,2.30
2022-12-23T12:22:46.788Z,2.10
2022-12-23T12:25:27.859Z,1.90
2022-12-23T12:28:00.785Z,1.98
2022-12-23T12:30:34.696Z,2.30
2022-12-23T12:33:06.035Z,2.13
2022-12-23T12:35:44.831Z,2.35
2022-12-23T12:38:30.237Z,2.20
2022-12-23T12:41:28.218Z,2.22
2022-12-23T12:43:57.435Z,2.17
2022-12-23T12:46:52.997Z,1.77
2022-12-23T12:49:39.096Z,1.98
2022-12-23T12:52:24.085Z,1.83
2022-12-23T12:55:17.481Z,1.83
2022-12-23T12:57:44.041Z,1.80
2022-12-23T13:00:18.205Z,1.90
2022-12-23T13:02:53.501Z,1.70
2022-12-23T13:05:55.210Z,2.05
2022-12-23T13:08:43.438Z,1.73
2022-12-23T13:11:16.349Z,1.70
2022-12-23T13:14:01.038Z,1.60
2022-12-23T13:17:01.554Z,1.90
2022-12-23T13:19:30.714Z,1.60
2022-12-23T13:22:13.169Z,2.00
2022-12-23T13:24:56.965Z,1.90
2022-12-23T13:30:03.272Z,1.70
2022-12-23T13:33:05.179Z,1.70
2022-12-23T13:35:40.737Z,1.95
2022-12-23T13:38:16.612Z,1.83
2022-12-23T13:40:57.608Z,1.70
2022-12-23T13:43:25.749Z,2.05
2022-12-23T13:45:54.258Z,1.90
2022-12-23T13:48:41.127Z,1.52
2022-12-23T13:51:31.210Z,2.00
2022-12-23T13:54:18.760Z,1.60
2022-12-23T13:57:07.991Z,1.67
2022-12-23T13:59:58.421Z,1.80
2022-12-23T14:02:36.939Z,2.10
2022-12-23T14:05:05.716Z,1.77
2022-12-23T14:07:33.542Z,1.70
2022-12-23T14:10:11.721Z,1.60
2022-12-23T14:12:42.687Z,1.58
2022-12-23T14:15:26.090Z,1.90
2022-12-23T14:18:06.834Z,1.23
2022-12-23T14:20:39.318Z,1.67
2022-12-23T14:23:28.560Z,1.83
2022-12-23T14:26:07.147Z,1.60
2022-12-23T14:29:12.752Z,1.67
2022-12-23T14:31:46.307Z,2.08
2022-12-23T14:34:18.722Z,2.00
2022-12-23T14:37:23.617Z,1.60
2022-12-23T14:39:51.711Z,1.50
2022-12-23T14:42:47.516Z,1.45
2022-12-23T14:45:51.055Z,1.77
2022-12-23T14:48:35.997Z,1.50
2022-12-23T14:51:24.869Z,1.90
2022-12-23T14:53:52.081Z,1.90
2022-12-23T14:56:18.554Z,1.60
2022-12-23T14:59:05.080Z,1.50
2022-12-23T15:01:53.343Z,1.80
2022-12-23T15:04:26.123Z,1.70
2022-12-23T15:06:56.827Z,1.77
2022-12-23T15:09:29.012Z,1.48
2022-12-23T15:11:57.773Z,1.90
2022-12-23T15:14:42.542Z,2.10
2022-12-23T15:17:26.756Z,1.65
2022-12-23T15:19:54.275Z,1.80
2022-12-23T15:22:25.607Z,1.60
2022-12-23T15:24:56.793Z,1.65
2022-12-23T15:27:28.725Z,1.60
2022-12-23T15:29:56.086Z,2.03
2022-12-23T15:32:23.836Z,1.50
2022-12-23T15:34:51.832Z,1.50
2022-12-23T15:37:29.022Z,1.70
2022-12-23T15:40:03.397Z,1.65
2022-12-23T15:42:35.371Z,1.63
2022-12-23T15:45:21.149Z,1.70
2022-12-23T15:47:47.666Z,1.65
2022-12-23T15:50:16.506Z,1.70
2022-12-23T15:52:44.998Z,1.77
2022-12-23T15:55:13.076Z,1.63
2022-12-23T15:57:50.146Z,1.70
2022-12-23T16:00:21.689Z,1.85
2022-12-23T16:03:00.495Z,1.60
2022-12-23T16:05:35.433Z,1.75
2022-12-23T16:08:29.661Z,1.60
2022-12-23T16:10:56.899Z,1.60
2022-12-23T16:13:23.895Z,1.48
2022-12-23T16:15:50.562Z,1.40
2022-12-23T16:18:19.778Z,1.60
2022-12-23T16:20:53.678Z,1.73
2022-12-23T16:23:21.036Z,1.60
2022-12-23T16:25:50.836Z,1.80
2022-12-23T16:28:29.950Z,1.70
2022-12-23T16:30:57.648Z,1.85
2022-12-23T16:33:34.208Z,1.50
2022-12-23T16:36:20.644Z,2.20
2022-12-23T16:38:48.598Z,1.58
2022-12-23T16:41:15.179Z,1.73
2022-12-23T16:43:47.703Z,1.73
2022-12-23T16:46:19.445Z,2.33
2022-12-23T16:48:51.589Z,2.22
2022-12-23T16:51:20.448Z,1.70
2022-12-23T16:53:51.319Z,1.90
2022-12-23T16:56:19.527Z,1.92
2022-12-23T16:58:46.484Z,1.73
2022-12-23T17:01:18.735Z,1.60
2022-12-23T17:03:45.292Z,1.77
2022-12-23T17:06:13.726Z,2.25
2022-12-23T17:08:40.677Z,2.28
2022-12-23T17:11:15.886Z,1.70
2022-12-23T17:13:42.474Z,1.88
2022-12-23T17:16:15.434Z,1.80
2022-12-23T17:18:42.089Z,1.58
2022-12-23T17:21:18.673Z,2.50
2022-12-23T17:23:45.237Z,2.53
2022-12-23T17:26:11.770Z,2.47
2022-12-23T17:28:38.357Z,2.00
2022-12-23T17:31:12.019Z,1.88
2022-12-23T17:33:40.967Z,2.47
2022-12-23T17:36:08.616Z,2.03
2022-12-23T17:38:35.165Z,1.90
2022-12-23T17:41:01.763Z,1.92
2022-12-23T17:43:28.387Z,2.00
2022-12-23T17:45:55.749Z,2.35
2022-12-23T17:48:28.017Z,1.90
2022-12-23T17:50:57.838Z,2.53
2022-12-23T17:53:24.389Z,2.38
2022-12-23T17:55:50.949Z,2.20
2022-12-23T17:58:17.552Z,2.13
2022-12-23T18:00:44.244Z,2.05
2022-12-23T18:03:22.211Z,2.50
2022-12-23T18:05:49.189Z,2.53
2022-12-23T18:08:16.905Z,2.40
2022-12-23T18:10:43.652Z,2.67
2022-12-23T18:13:15.095Z,2.50
2022-12-23T18:15:43.515Z,2.40
2022-12-23T18:18:26.032Z,2.30
2022-12-23T18:20:56.700Z,2.97
2022-12-23T18:23:29.286Z,2.30
2022-12-23T18:25:56.831Z,2.10
2022-12-23T18:28:24.191Z,2.70
2022-12-23T18:30:56.220Z,2.70
2022-12-23T18:33:24.199Z,2.63
2022-12-23T18:35:51.085Z,2.83
2022-12-23T18:38:18.383Z,2.70
2022-12-23T18:40:45.287Z,2.28
2022-12-23T18:43:20.054Z,2.17
2022-12-23T18:45:52.452Z,2.25
2022-12-23T18:48:19.985Z,3.10
2022-12-23T18:50:46.734Z,2.88
2022-12-23T18:53:23.889Z,2.70
2022-12-23T18:55:51.685Z,3.05
2022-12-23T18:58:18.509Z,2.15
2022-12-23T19:00:45.858Z,2.90
2022-12-23T19:03:27.932Z,3.05
2022-12-23T19:05:55.405Z,2.38
2022-12-23T19:08:26.632Z,2.90
2022-12-23T19:10:55.479Z,2.95
2022-12-23T19:13:22.053Z,2.67
2022-12-23T19:15:48.882Z,2.45
2022-12-23T19:18:17.989Z,2.50
2022-12-23T19:20:47.361Z,2.30
2022-12-23T19:23:14.120Z,2.95
2022-12-23T19:25:42.123Z,2.47
2022-12-23T19:28:08.936Z,2.45
2022-12-23T19:30:35.558Z,3.03
2022-12-23T19:33:02.296Z,2.60
2022-12-23T19:35:28.833Z,2.80
2022-12-23T19:37:55.377Z,2.47
2022-12-23T19:40:21.919Z,2.80
2022-12-23T19:42:48.489Z,2.60
2022-12-23T19:45:15.055Z,2.70
2022-12-23T19:47:41.608Z,2.75
2022-12-23T19:50:08.910Z,2.90
2022-12-23T19:52:35.577Z,2.80
2022-12-23T19:55:02.165Z,2.50
2022-12-23T19:57:28.739Z,3.08
2022-12-23T19:59:55.274Z,2.75
2022-12-23T20:02:23.425Z,2.95
2022-12-23T20:04:50.069Z,2.67
2022-12-23T20:07:16.915Z,3.10
2022-12-23T20:09:43.495Z,3.60
2022-12-23T20:12:10.056Z,3.55
2022-12-23T20:14:36.796Z,2.83
2022-12-23T20:17:03.555Z,2.47
2022-12-23T20:19:30.097Z,2.85
2022-12-23T20:21:56.658Z,2.95
2022-12-23T20:24:23.200Z,3.22
2022-12-23T20:26:49.725Z,3.22
2022-12-23T20:29:16.325Z,2.78
2022-12-23T20:31:43.454Z,3.80
2022-12-23T20:34:14.124Z,3.35
2022-12-23T20:36:40.692Z,3.25
2022-12-23T20:39:07.311Z,2.92
2022-12-23T20:41:34.299Z,2.88
2022-12-23T20:46:47.648Z,3.80
2022-12-23T20:49:14.230Z,3.50
2022-12-23T20:51:40.821Z,3.33
2022-12-23T20:54:07.376Z,3.53
2022-12-23T20:56:33.921Z,2.83
2022-12-23T20:59:03.995Z,4.07
2022-12-23T21:01:48.822Z,3.50
2022-12-23T21:04:16.696Z,3.13
2022-12-23T21:06:43.968Z,3.15
2022-12-23T21:09:12.288Z,3.22
2022-12-23T21:11:43.031Z,2.92
2022-12-23T21:14:10.590Z,2.72
2022-12-23T21:16:38.659Z,3.00
2022-12-23T21:19:14.661Z,2.90
2022-12-23T21:21:41.233Z,3.30
2022-12-23T21:24:07.864Z,3.75
2022-12-23T21:26:35.493Z,2.90
2022-12-23T21:29:03.921Z,3.33
2022-12-23T21:31:32.130Z,3.20
2022-12-23T21:33:58.982Z,3.55
2022-12-23T21:36:28.090Z,3.58
2022-12-23T21:38:54.723Z,3.00
2022-12-23T21:41:27.379Z,2.90
2022-12-23T21:43:55.529Z,2.90
2022-12-23T21:46:23.444Z,2.65
2022-12-23T21:48:50.443Z,3.50
2022-12-23T21:51:21.983Z,2.95
2022-12-23T21:53:50.554Z,3.22
2022-12-23T21:56:20.062Z,2.80
2022-12-23T21:58:46.932Z,3.20
2022-12-23T22:01:18.757Z,2.95
2022-12-23T22:03:47.284Z,2.92
2022-12-23T22:06:15.878Z,2.65
2022-12-23T22:08:42.504Z,2.75
2022-12-23T22:11:11.984Z,2.85
2022-12-23T22:13:39.079Z,3.20
2022-12-23T22:16:09.378Z,2.83
2022-12-23T22:18:37.152Z,2.88
2022-12-23T22:21:05.326Z,3.10
2022-12-23T22:23:31.884Z,2.85
2022-12-23T22:25:58.405Z,2.90
2022-12-23T22:28:24.964Z,2.70
2022-12-23T22:30:51.593Z,2.85
2022-12-23T22:33:18.149Z,3.20
2022-12-23T22:35:54.695Z,3.08
2022-12-23T22:38:21.367Z,2.72
2022-12-23T22:40:51.666Z,2.60
2022-12-23T22:43:18.751Z,2.90
2022-12-23T22:45:45.617Z,2.75
2022-12-23T22:48:12.568Z,2.80
2022-12-23T22:50:39.496Z,3.03
2022-12-23T22:53:06.058Z,3.10
2022-12-23T22:55:32.628Z,2.72
2022-12-23T22:57:59.145Z,2.90
2022-12-23T23:00:25.700Z,2.60
2022-12-23T23:02:52.244Z,2.40
2022-12-23T23:05:18.804Z,2.55
2022-12-23T23:07:45.354Z,2.58
2022-12-23T23:10:11.865Z,2.63
2022-12-23T23:12:39.605Z,2.45
2022-12-23T23:15:06.828Z,2.60
2022-12-23T23:17:33.431Z,2.40
2022-12-23T23:20:01.183Z,2.40
2022-12-23T23:22:27.713Z,2.42
2022-12-23T23:24:54.252Z,2.85
2022-12-23T23:27:20.873Z,2.58
2022-12-23T23:29:47.475Z,2.40
2022-12-23T23:32:14.048Z,2.10
2022-12-23T23:34:42.043Z,2.10
2022-12-23T23:37:08.589Z,2.47
2022-12-23T23:39:35.129Z,2.40
2022-12-23T23:42:01.706Z,2.50
2022-12-23T23:44:28.240Z,2.40
2022-12-23T23:46:54.807Z,2.47
2022-12-23T23:49:21.979Z,2.40
2022-12-23T23:51:49.294Z,2.20
2022-12-23T23:54:16.103Z,2.10
2022-12-23T23:56:42.649Z,1.88
2022-12-23T23:59:09.466Z,1.90
